sensor_id;sensor_type;location;lat;lon;timestamp;temperature;humidity
8563;DHT22;16392;52.508;13.468;2023-10-19T00:00:47;7.60;99.90
8563;DHT22;16392;52.508;13.468;2023-10-19T00:03:16;7.60;99.90
8563;DHT22;16392;52.508;13.468;2023-10-19T00:05:42;7.50;99.90
8563;DHT22;16392;52.508;13.468;2023-10-19T00:08:08;7.60;99.90
8563;DHT22;16392;52.508;13.468;2023-10-19T00:10:43;7.60;99.90
8563;DHT22;16392;52.508;13.468;2023-10-19T00:13:10;7.50;99.90
8563;DHT22;16392;52.508;13.468;2023-10-19T00:15:38;7.50;99.90
8563;DHT22;16392;52.508;13.468;2023-10-19T00:18:06;7.50;99.90
8563;DHT22;16392;52.508;13.468;2023-10-19T00:20:47;7.50;99.90
8563;DHT22;16392;52.508;13.468;2023-10-19T00:23:17;7.50;99.90
8563;DHT22;16392;52.508;13.468;2023-10-19T00:25:51;7.50;99.90
8563;DHT22;16392;52.508;13.468;2023-10-19T00:28:17;7.50;99.90
8563;DHT22;16392;52.508;13.468;2023-10-19T00:30:44;7.50;99.90
8563;DHT22;16392;52.508;13.468;2023-10-19T00:33:11;7.50;99.90
8563;DHT22;16392;52.508;13.468;2023-10-19T00:35:43;7.40;99.90
8563;DHT22;16392;52.508;13.468;2023-10-19T00:38:15;7.40;99.90
8563;DHT22;16392;52.508;13.468;2023-10-19T00:40:54;7.40;99.90
8563;DHT22;16392;52.508;13.468;2023-10-19T00:43:29;7.40;99.90
8563;DHT22;16392;52.508;13.468;2023-10-19T00:45:58;7.40;99.90
8563;DHT22;16392;52.508;13.468;2023-10-19T00:48:27;7.40;99.90
8563;DHT22;16392;52.508;13.468;2023-10-19T00:50:54;7.40;99.90
8563;DHT22;16392;52.508;13.468;2023-10-19T00:53:33;7.30;99.90
8563;DHT22;16392;52.508;13.468;2023-10-19T00:56:03;7.30;99.90
8563;DHT22;16392;52.508;13.468;2023-10-19T00:58:32;7.30;99.90
8563;DHT22;16392;52.508;13.468;2023-10-19T01:01:02;7.40;99.90
8563;DHT22;16392;52.508;13.468;2023-10-19T01:03:31;7.30;99.90
8563;DHT22;16392;52.508;13.468;2023-10-19T01:06:03;7.30;99.90
8563;DHT22;16392;52.508;13.468;2023-10-19T01:08:36;7.30;99.90
8563;DHT22;16392;52.508;13.468;2023-10-19T01:11:09;7.30;99.90
8563;DHT22;16392;52.508;13.468;2023-10-19T01:13:37;7.30;99.90
8563;DHT22;16392;52.508;13.468;2023-10-19T01:16:12;7.30;99.90
8563;DHT22;16392;52.508;13.468;2023-10-19T01:18:47;7.20;99.90
8563;DHT22;16392;52.508;13.468;2023-10-19T01:21:14;7.30;99.90
8563;DHT22;16392;52.508;13.468;2023-10-19T01:23:47;7.30;99.90
8563;DHT22;16392;52.508;13.468;2023-10-19T01:26:14;7.20;99.90
8563;DHT22;16392;52.508;13.468;2023-10-19T01:28:44;7.20;99.90
8563;DHT22;16392;52.508;13.468;2023-10-19T01:31:15;7.20;99.90
8563;DHT22;16392;52.508;13.468;2023-10-19T01:33:48;7.20;99.90
8563;DHT22;16392;52.508;13.468;2023-10-19T01:36:15;7.20;99.90
8563;DHT22;16392;52.508;13.468;2023-10-19T01:38:51;7.20;99.90
8563;DHT22;16392;52.508;13.468;2023-10-19T01:41:21;7.20;99.90
8563;DHT22;16392;52.508;13.468;2023-10-19T01:43:49;7.20;99.90
8563;DHT22;16392;52.508;13.468;2023-10-19T01:46:17;7.30;99.90
8563;DHT22;16392;52.508;13.468;2023-10-19T01:48:48;7.20;99.90
8563;DHT22;16392;52.508;13.468;2023-10-19T01:51:20;7.30;99.90
8563;DHT22;16392;52.508;13.468;2023-10-19T01:53:46;7.30;99.90
8563;DHT22;16392;52.508;13.468;2023-10-19T01:56:15;7.30;99.90
8563;DHT22;16392;52.508;13.468;2023-10-19T01:58:43;7.30;99.90
8563;DHT22;16392;52.508;13.468;2023-10-19T02:01:13;7.20;99.90
8563;DHT22;16392;52.508;13.468;2023-10-19T02:03:47;7.30;99.90
8563;DHT22;16392;52.508;13.468;2023-10-19T02:06:14;7.20;99.90
8563;DHT22;16392;52.508;13.468;2023-10-19T02:08:50;7.30;99.90
8563;DHT22;16392;52.508;13.468;2023-10-19T02:11:19;7.30;99.90
8563;DHT22;16392;52.508;13.468;2023-10-19T02:13:48;7.30;99.90
8563;DHT22;16392;52.508;13.468;2023-10-19T02:16:15;7.30;99.90
8563;DHT22;16392;52.508;13.468;2023-10-19T02:18:43;7.30;99.90
8563;DHT22;16392;52.508;13.468;2023-10-19T02:21:08;7.20;99.90
8563;DHT22;16392;52.508;13.468;2023-10-19T02:23:38;7.20;99.90
8563;DHT22;16392;52.508;13.468;2023-10-19T02:26:04;7.20;99.90
8563;DHT22;16392;52.508;13.468;2023-10-19T02:28:32;7.30;99.90
8563;DHT22;16392;52.508;13.468;2023-10-19T02:31:02;7.30;99.90
8563;DHT22;16392;52.508;13.468;2023-10-19T02:33:37;7.20;99.90
8563;DHT22;16392;52.508;13.468;2023-10-19T02:36:04;7.20;99.90
8563;DHT22;16392;52.508;13.468;2023-10-19T02:38:39;7.20;99.90
8563;DHT22;16392;52.508;13.468;2023-10-19T02:41:07;7.20;99.90
8563;DHT22;16392;52.508;13.468;2023-10-19T02:43:36;7.30;99.90
8563;DHT22;16392;52.508;13.468;2023-10-19T02:46:04;7.30;99.90
8563;DHT22;16392;52.508;13.468;2023-10-19T02:48:30;7.30;99.90
8563;DHT22;16392;52.508;13.468;2023-10-19T02:50:57;7.30;99.90
8563;DHT22;16392;52.508;13.468;2023-10-19T02:53:32;7.30;99.90
8563;DHT22;16392;52.508;13.468;2023-10-19T02:56:09;7.30;99.90
8563;DHT22;16392;52.508;13.468;2023-10-19T02:58:40;7.30;99.90
8563;DHT22;16392;52.508;13.468;2023-10-19T03:01:12;7.30;99.90
8563;DHT22;16392;52.508;13.468;2023-10-19T03:03:42;7.30;99.90
8563;DHT22;16392;52.508;13.468;2023-10-19T03:06:10;7.30;99.90
8563;DHT22;16392;52.508;13.468;2023-10-19T03:08:36;7.30;99.90
8563;DHT22;16392;52.508;13.468;2023-10-19T03:11:03;7.30;99.90
8563;DHT22;16392;52.508;13.468;2023-10-19T03:13:32;7.30;99.90
8563;DHT22;16392;52.508;13.468;2023-10-19T03:16:00;7.30;99.90
8563;DHT22;16392;52.508;13.468;2023-10-19T03:18:31;7.30;99.90
8563;DHT22;16392;52.508;13.468;2023-10-19T03:20:58;7.30;99.90
8563;DHT22;16392;52.508;13.468;2023-10-19T03:23:24;7.20;99.90
8563;DHT22;16392;52.508;13.468;2023-10-19T03:25:55;7.30;99.90
8563;DHT22;16392;52.508;13.468;2023-10-19T03:28:39;7.30;99.90
8563;DHT22;16392;52.508;13.468;2023-10-19T03:31:08;7.30;99.90
8563;DHT22;16392;52.508;13.468;2023-10-19T03:33:34;7.30;99.90
8563;DHT22;16392;52.508;13.468;2023-10-19T03:36:02;7.30;99.90
8563;DHT22;16392;52.508;13.468;2023-10-19T03:38:30;7.30;99.90
8563;DHT22;16392;52.508;13.468;2023-10-19T03:41:00;7.30;99.90
8563;DHT22;16392;52.508;13.468;2023-10-19T03:43:32;7.30;99.90
8563;DHT22;16392;52.508;13.468;2023-10-19T03:45:58;7.30;99.90
8563;DHT22;16392;52.508;13.468;2023-10-19T03:48:31;7.30;99.90
8563;DHT22;16392;52.508;13.468;2023-10-19T03:51:03;7.20;99.90
8563;DHT22;16392;52.508;13.468;2023-10-19T03:53:30;7.20;99.90
8563;DHT22;16392;52.508;13.468;2023-10-19T03:55:58;7.30;99.90
8563;DHT22;16392;52.508;13.468;2023-10-19T03:58:24;7.20;99.90
8563;DHT22;16392;52.508;13.468;2023-10-19T04:00:54;7.20;99.90
8563;DHT22;16392;52.508;13.468;2023-10-19T04:03:26;7.20;99.90
8563;DHT22;16392;52.508;13.468;2023-10-19T04:05:57;7.20;99.90
8563;DHT22;16392;52.508;13.468;2023-10-19T04:08:26;7.20;99.90
8563;DHT22;16392;52.508;13.468;2023-10-19T04:10:52;7.20;99.90
8563;DHT22;16392;52.508;13.468;2023-10-19T04:13:48;7.20;99.90
8563;DHT22;16392;52.508;13.468;2023-10-19T04:16:15;7.20;99.90
8563;DHT22;16392;52.508;13.468;2023-10-19T04:18:42;7.20;99.90
8563;DHT22;16392;52.508;13.468;2023-10-19T04:21:09;7.10;99.90
8563;DHT22;16392;52.508;13.468;2023-10-19T04:23:36;7.10;99.90
8563;DHT22;16392;52.508;13.468;2023-10-19T04:26:03;7.10;99.90
8563;DHT22;16392;52.508;13.468;2023-10-19T04:28:38;7.10;99.90
8563;DHT22;16392;52.508;13.468;2023-10-19T04:31:13;7.10;99.90
8563;DHT22;16392;52.508;13.468;2023-10-19T04:33:41;7.10;99.90
8563;DHT22;16392;52.508;13.468;2023-10-19T04:36:14;7.00;99.90
8563;DHT22;16392;52.508;13.468;2023-10-19T04:38:41;7.00;99.90
8563;DHT22;16392;52.508;13.468;2023-10-19T04:41:10;7.00;99.90
8563;DHT22;16392;52.508;13.468;2023-10-19T04:43:38;7.00;99.90
8563;DHT22;16392;52.508;13.468;2023-10-19T04:46:06;6.90;99.90
8563;DHT22;16392;52.508;13.468;2023-10-19T04:48:38;7.00;99.90
8563;DHT22;16392;52.508;13.468;2023-10-19T04:51:07;6.90;99.90
8563;DHT22;16392;52.508;13.468;2023-10-19T04:53:37;6.90;99.90
8563;DHT22;16392;52.508;13.468;2023-10-19T04:56:04;6.90;99.90
8563;DHT22;16392;52.508;13.468;2023-10-19T04:58:32;6.90;99.90
8563;DHT22;16392;52.508;13.468;2023-10-19T05:01:07;6.80;99.90
8563;DHT22;16392;52.508;13.468;2023-10-19T05:03:58;6.80;99.90
8563;DHT22;16392;52.508;13.468;2023-10-19T05:06:24;6.80;99.90
8563;DHT22;16392;52.508;13.468;2023-10-19T05:08:51;6.90;99.90
8563;DHT22;16392;52.508;13.468;2023-10-19T05:11:18;6.80;99.90
8563;DHT22;16392;52.508;13.468;2023-10-19T05:13:45;6.80;99.90
8563;DHT22;16392;52.508;13.468;2023-10-19T05:16:12;6.80;99.90
8563;DHT22;16392;52.508;13.468;2023-10-19T05:18:38;6.80;99.90
8563;DHT22;16392;52.508;13.468;2023-10-19T05:21:11;6.80;99.90
8563;DHT22;16392;52.508;13.468;2023-10-19T05:23:38;6.80;99.90
8563;DHT22;16392;52.508;13.468;2023-10-19T05:26:05;6.80;99.90
8563;DHT22;16392;52.508;13.468;2023-10-19T05:28:33;6.80;99.90
8563;DHT22;16392;52.508;13.468;2023-10-19T05:30:59;6.80;99.90
8563;DHT22;16392;52.508;13.468;2023-10-19T05:33:27;6.80;99.90
8563;DHT22;16392;52.508;13.468;2023-10-19T05:35:55;6.70;99.90
8563;DHT22;16392;52.508;13.468;2023-10-19T05:38:23;6.70;99.90
8563;DHT22;16392;52.508;13.468;2023-10-19T05:40:59;6.80;99.90
8563;DHT22;16392;52.508;13.468;2023-10-19T05:43:30;6.80;99.90
8563;DHT22;16392;52.508;13.468;2023-10-19T05:45:57;6.70;99.90
8563;DHT22;16392;52.508;13.468;2023-10-19T05:48:24;6.70;99.90
8563;DHT22;16392;52.508;13.468;2023-10-19T05:50:50;6.70;99.90
8563;DHT22;16392;52.508;13.468;2023-10-19T05:53:17;6.80;99.90
8563;DHT22;16392;52.508;13.468;2023-10-19T05:55:45;6.70;99.90
8563;DHT22;16392;52.508;13.468;2023-10-19T05:58:12;6.70;99.90
8563;DHT22;16392;52.508;13.468;2023-10-19T06:00:40;6.70;99.90
8563;DHT22;16392;52.508;13.468;2023-10-19T06:03:07;6.70;99.90
8563;DHT22;16392;52.508;13.468;2023-10-19T06:05:35;6.70;99.90
8563;DHT22;16392;52.508;13.468;2023-10-19T06:08:02;6.70;99.90
8563;DHT22;16392;52.508;13.468;2023-10-19T06:10:30;6.70;99.90
8563;DHT22;16392;52.508;13.468;2023-10-19T06:12:59;6.70;99.90
8563;DHT22;16392;52.508;13.468;2023-10-19T06:15:25;6.60;99.90
8563;DHT22;16392;52.508;13.468;2023-10-19T06:17:54;6.50;99.90
8563;DHT22;16392;52.508;13.468;2023-10-19T06:20:21;6.40;99.90
8563;DHT22;16392;52.508;13.468;2023-10-19T06:22:52;6.30;99.90
8563;DHT22;16392;52.508;13.468;2023-10-19T06:25:20;6.30;99.90
8563;DHT22;16392;52.508;13.468;2023-10-19T06:28:02;6.30;99.90
8563;DHT22;16392;52.508;13.468;2023-10-19T06:30:36;6.20;99.90
8563;DHT22;16392;52.508;13.468;2023-10-19T06:33:04;6.20;99.90
8563;DHT22;16392;52.508;13.468;2023-10-19T06:35:32;6.20;99.90
8563;DHT22;16392;52.508;13.468;2023-10-19T06:38:00;6.20;99.90
8563;DHT22;16392;52.508;13.468;2023-10-19T06:40:29;6.20;99.90
8563;DHT22;16392;52.508;13.468;2023-10-19T06:42:57;6.20;99.90
8563;DHT22;16392;52.508;13.468;2023-10-19T06:45:29;6.20;99.90
8563;DHT22;16392;52.508;13.468;2023-10-19T06:48:00;6.10;99.90
8563;DHT22;16392;52.508;13.468;2023-10-19T06:50:27;6.10;99.90
8563;DHT22;16392;52.508;13.468;2023-10-19T06:52:53;6.20;99.90
8563;DHT22;16392;52.508;13.468;2023-10-19T06:55:20;6.20;99.90
8563;DHT22;16392;52.508;13.468;2023-10-19T06:57:54;6.20;99.90
8563;DHT22;16392;52.508;13.468;2023-10-19T07:00:25;6.20;99.90
8563;DHT22;16392;52.508;13.468;2023-10-19T07:02:59;6.30;99.90
8563;DHT22;16392;52.508;13.468;2023-10-19T07:05:26;6.30;99.90
8563;DHT22;16392;52.508;13.468;2023-10-19T07:07:57;6.30;99.90
8563;DHT22;16392;52.508;13.468;2023-10-19T07:10:25;6.40;99.90
8563;DHT22;16392;52.508;13.468;2023-10-19T07:12:55;6.40;99.90
8563;DHT22;16392;52.508;13.468;2023-10-19T07:15:22;6.50;99.90
8563;DHT22;16392;52.508;13.468;2023-10-19T07:17:53;6.60;99.90
8563;DHT22;16392;52.508;13.468;2023-10-19T07:20:21;6.60;99.90
8563;DHT22;16392;52.508;13.468;2023-10-19T07:22:55;6.60;99.90
8563;DHT22;16392;52.508;13.468;2023-10-19T07:25:22;6.60;99.90
8563;DHT22;16392;52.508;13.468;2023-10-19T07:27:51;6.70;99.90
8563;DHT22;16392;52.508;13.468;2023-10-19T07:30:18;6.80;99.90
8563;DHT22;16392;52.508;13.468;2023-10-19T07:32:48;6.80;99.90
8563;DHT22;16392;52.508;13.468;2023-10-19T07:35:21;6.90;99.90
8563;DHT22;16392;52.508;13.468;2023-10-19T07:37:48;6.90;99.90
8563;DHT22;16392;52.508;13.468;2023-10-19T07:40:16;7.00;99.90
8563;DHT22;16392;52.508;13.468;2023-10-19T07:42:43;7.00;99.90
8563;DHT22;16392;52.508;13.468;2023-10-19T07:45:10;7.00;99.90
8563;DHT22;16392;52.508;13.468;2023-10-19T07:47:37;7.10;99.90
8563;DHT22;16392;52.508;13.468;2023-10-19T07:50:06;7.10;99.90
8563;DHT22;16392;52.508;13.468;2023-10-19T07:52:39;7.10;99.90
8563;DHT22;16392;52.508;13.468;2023-10-19T07:55:06;7.10;99.90
8563;DHT22;16392;52.508;13.468;2023-10-19T07:57:34;7.10;99.90
8563;DHT22;16392;52.508;13.468;2023-10-19T08:00:01;7.10;99.90
8563;DHT22;16392;52.508;13.468;2023-10-19T08:02:29;7.20;99.90
8563;DHT22;16392;52.508;13.468;2023-10-19T08:04:56;7.20;99.90
8563;DHT22;16392;52.508;13.468;2023-10-19T08:07:22;7.30;99.90
8563;DHT22;16392;52.508;13.468;2023-10-19T08:09:53;7.40;99.90
8563;DHT22;16392;52.508;13.468;2023-10-19T08:12:24;7.40;99.90
8563;DHT22;16392;52.508;13.468;2023-10-19T08:14:51;7.40;99.90
8563;DHT22;16392;52.508;13.468;2023-10-19T08:17:18;7.30;99.90
8563;DHT22;16392;52.508;13.468;2023-10-19T08:19:45;7.40;99.90
8563;DHT22;16392;52.508;13.468;2023-10-19T08:22:11;7.40;99.90
8563;DHT22;16392;52.508;13.468;2023-10-19T08:24:40;7.30;99.90
8563;DHT22;16392;52.508;13.468;2023-10-19T08:27:09;7.30;99.90
8563;DHT22;16392;52.508;13.468;2023-10-19T08:29:36;7.40;99.90
8563;DHT22;16392;52.508;13.468;2023-10-19T08:32:04;7.40;99.90
8563;DHT22;16392;52.508;13.468;2023-10-19T08:34:33;7.40;99.90
8563;DHT22;16392;52.508;13.468;2023-10-19T08:37:01;7.40;99.90
8563;DHT22;16392;52.508;13.468;2023-10-19T08:39:27;7.40;99.90
8563;DHT22;16392;52.508;13.468;2023-10-19T08:42:01;7.50;99.90
8563;DHT22;16392;52.508;13.468;2023-10-19T08:44:30;7.50;99.90
8563;DHT22;16392;52.508;13.468;2023-10-19T08:46:57;7.50;99.90
8563;DHT22;16392;52.508;13.468;2023-10-19T08:49:25;7.60;99.90
8563;DHT22;16392;52.508;13.468;2023-10-19T08:51:54;7.70;99.90
8563;DHT22;16392;52.508;13.468;2023-10-19T08:54:21;7.70;99.90
8563;DHT22;16392;52.508;13.468;2023-10-19T08:56:48;7.80;99.90
8563;DHT22;16392;52.508;13.468;2023-10-19T08:59:14;7.90;99.90
8563;DHT22;16392;52.508;13.468;2023-10-19T09:01:43;7.90;99.90
8563;DHT22;16392;52.508;13.468;2023-10-19T09:04:11;7.90;99.90
8563;DHT22;16392;52.508;13.468;2023-10-19T09:06:39;7.90;99.90
8563;DHT22;16392;52.508;13.468;2023-10-19T09:09:08;7.90;99.90
8563;DHT22;16392;52.508;13.468;2023-10-19T09:11:39;7.90;99.90
8563;DHT22;16392;52.508;13.468;2023-10-19T09:14:06;8.00;99.90
8563;DHT22;16392;52.508;13.468;2023-10-19T09:16:32;8.10;99.90
8563;DHT22;16392;52.508;13.468;2023-10-19T09:19:00;8.10;99.90
8563;DHT22;16392;52.508;13.468;2023-10-19T09:21:27;8.10;99.90
8563;DHT22;16392;52.508;13.468;2023-10-19T09:23:55;8.20;99.90
8563;DHT22;16392;52.508;13.468;2023-10-19T09:26:23;8.30;99.90
8563;DHT22;16392;52.508;13.468;2023-10-19T09:28:51;8.30;99.90
8563;DHT22;16392;52.508;13.468;2023-10-19T09:31:19;8.40;99.90
8563;DHT22;16392;52.508;13.468;2023-10-19T09:33:47;8.40;99.90
8563;DHT22;16392;52.508;13.468;2023-10-19T09:36:16;8.40;99.90
8563;DHT22;16392;52.508;13.468;2023-10-19T09:38:45;8.30;99.90
8563;DHT22;16392;52.508;13.468;2023-10-19T09:41:15;8.30;99.90
8563;DHT22;16392;52.508;13.468;2023-10-19T09:43:44;8.40;99.90
8563;DHT22;16392;52.508;13.468;2023-10-19T09:46:20;8.40;99.90
8563;DHT22;16392;52.508;13.468;2023-10-19T09:48:48;8.50;99.90
8563;DHT22;16392;52.508;13.468;2023-10-19T09:51:17;8.50;99.90
8563;DHT22;16392;52.508;13.468;2023-10-19T09:53:47;8.50;99.90
8563;DHT22;16392;52.508;13.468;2023-10-19T09:56:19;8.60;99.90
8563;DHT22;16392;52.508;13.468;2023-10-19T09:58:49;8.50;99.90
8563;DHT22;16392;52.508;13.468;2023-10-19T10:01:17;8.50;99.90
8563;DHT22;16392;52.508;13.468;2023-10-19T10:03:48;8.50;99.90
8563;DHT22;16392;52.508;13.468;2023-10-19T10:06:27;8.50;99.90
8563;DHT22;16392;52.508;13.468;2023-10-19T10:08:59;8.50;99.90
8563;DHT22;16392;52.508;13.468;2023-10-19T10:11:29;8.50;99.90
8563;DHT22;16392;52.508;13.468;2023-10-19T10:13:56;8.50;99.90
8563;DHT22;16392;52.508;13.468;2023-10-19T10:16:25;8.60;99.90
8563;DHT22;16392;52.508;13.468;2023-10-19T10:18:57;8.60;99.90
8563;DHT22;16392;52.508;13.468;2023-10-19T10:21:28;8.60;99.90
8563;DHT22;16392;52.508;13.468;2023-10-19T10:23:56;8.60;99.90
8563;DHT22;16392;52.508;13.468;2023-10-19T10:26:25;8.60;99.90
8563;DHT22;16392;52.508;13.468;2023-10-19T10:29:10;8.60;99.90
8563;DHT22;16392;52.508;13.468;2023-10-19T10:31:48;8.60;99.90
8563;DHT22;16392;52.508;13.468;2023-10-19T10:34:43;8.60;99.90
8563;DHT22;16392;52.508;13.468;2023-10-19T10:37:12;8.30;99.90
8563;DHT22;16392;52.508;13.468;2023-10-19T10:39:40;8.20;99.90
8563;DHT22;16392;52.508;13.468;2023-10-19T10:42:07;8.10;99.90
8563;DHT22;16392;52.508;13.468;2023-10-19T10:44:47;8.00;99.90
8563;DHT22;16392;52.508;13.468;2023-10-19T10:47:20;7.90;99.90
8563;DHT22;16392;52.508;13.468;2023-10-19T10:49:49;7.90;99.90
8563;DHT22;16392;52.508;13.468;2023-10-19T10:52:27;7.90;99.90
8563;DHT22;16392;52.508;13.468;2023-10-19T10:54:55;7.90;99.90
8563;DHT22;16392;52.508;13.468;2023-10-19T10:57:22;8.00;99.90
8563;DHT22;16392;52.508;13.468;2023-10-19T11:00:04;8.00;99.90
8563;DHT22;16392;52.508;13.468;2023-10-19T11:02:32;8.00;99.90
8563;DHT22;16392;52.508;13.468;2023-10-19T11:04:59;8.00;99.90
8563;DHT22;16392;52.508;13.468;2023-10-19T11:07:27;7.90;99.90
8563;DHT22;16392;52.508;13.468;2023-10-19T11:09:55;7.90;99.90
8563;DHT22;16392;52.508;13.468;2023-10-19T11:12:22;7.80;99.90
8563;DHT22;16392;52.508;13.468;2023-10-19T11:14:53;7.80;99.90
8563;DHT22;16392;52.508;13.468;2023-10-19T11:17:20;7.80;99.90
8563;DHT22;16392;52.508;13.468;2023-10-19T11:19:53;7.70;99.90
8563;DHT22;16392;52.508;13.468;2023-10-19T11:22:21;7.70;99.90
8563;DHT22;16392;52.508;13.468;2023-10-19T11:24:55;7.70;99.90
8563;DHT22;16392;52.508;13.468;2023-10-19T11:27:42;7.60;99.90
8563;DHT22;16392;52.508;13.468;2023-10-19T11:30:10;7.60;99.90
8563;DHT22;16392;52.508;13.468;2023-10-19T11:32:37;7.50;99.90
8563;DHT22;16392;52.508;13.468;2023-10-19T11:35:06;7.50;99.90
8563;DHT22;16392;52.508;13.468;2023-10-19T11:37:48;7.50;99.90
8563;DHT22;16392;52.508;13.468;2023-10-19T11:40:16;7.50;99.90
8563;DHT22;16392;52.508;13.468;2023-10-19T11:42:44;7.50;99.90
8563;DHT22;16392;52.508;13.468;2023-10-19T11:45:12;7.50;99.90
8563;DHT22;16392;52.508;13.468;2023-10-19T11:47:39;7.40;99.90
8563;DHT22;16392;52.508;13.468;2023-10-19T11:50:07;7.50;99.90
8563;DHT22;16392;52.508;13.468;2023-10-19T11:52:33;7.50;99.90
8563;DHT22;16392;52.508;13.468;2023-10-19T11:55:00;7.40;99.90
8563;DHT22;16392;52.508;13.468;2023-10-19T11:57:29;7.40;99.90
8563;DHT22;16392;52.508;13.468;2023-10-19T11:59:56;7.40;99.90
8563;DHT22;16392;52.508;13.468;2023-10-19T12:02:25;7.40;99.90
8563;DHT22;16392;52.508;13.468;2023-10-19T12:04:52;7.50;99.90
8563;DHT22;16392;52.508;13.468;2023-10-19T12:07:19;7.50;99.90
8563;DHT22;16392;52.508;13.468;2023-10-19T12:09:45;7.60;99.90
8563;DHT22;16392;52.508;13.468;2023-10-19T12:12:12;7.60;99.90
8563;DHT22;16392;52.508;13.468;2023-10-19T12:14:40;7.60;99.90
8563;DHT22;16392;52.508;13.468;2023-10-19T12:17:08;7.60;99.90
8563;DHT22;16392;52.508;13.468;2023-10-19T12:19:35;7.60;99.90
8563;DHT22;16392;52.508;13.468;2023-10-19T12:22:01;7.60;99.90
8563;DHT22;16392;52.508;13.468;2023-10-19T12:24:28;7.60;99.90
8563;DHT22;16392;52.508;13.468;2023-10-19T12:26:56;7.70;99.90
8563;DHT22;16392;52.508;13.468;2023-10-19T12:29:23;7.70;99.90
8563;DHT22;16392;52.508;13.468;2023-10-19T12:31:52;7.70;99.90
8563;DHT22;16392;52.508;13.468;2023-10-19T12:34:31;7.70;99.90
8563;DHT22;16392;52.508;13.468;2023-10-19T12:36:58;7.70;99.90
8563;DHT22;16392;52.508;13.468;2023-10-19T12:39:25;7.70;99.90
8563;DHT22;16392;52.508;13.468;2023-10-19T12:42:05;7.70;99.90
8563;DHT22;16392;52.508;13.468;2023-10-19T12:44:33;7.70;99.90
8563;DHT22;16392;52.508;13.468;2023-10-19T12:47:06;7.70;99.90
8563;DHT22;16392;52.508;13.468;2023-10-19T12:49:35;7.70;99.90
8563;DHT22;16392;52.508;13.468;2023-10-19T12:52:01;7.70;99.90
8563;DHT22;16392;52.508;13.468;2023-10-19T12:54:29;7.70;99.90
8563;DHT22;16392;52.508;13.468;2023-10-19T12:56:56;7.70;99.90
8563;DHT22;16392;52.508;13.468;2023-10-19T12:59:23;7.70;99.90
8563;DHT22;16392;52.508;13.468;2023-10-19T13:01:50;7.70;99.90
8563;DHT22;16392;52.508;13.468;2023-10-19T13:04:21;7.70;99.90
8563;DHT22;16392;52.508;13.468;2023-10-19T13:06:49;7.60;99.90
8563;DHT22;16392;52.508;13.468;2023-10-19T13:09:17;7.60;99.90
8563;DHT22;16392;52.508;13.468;2023-10-19T13:11:47;7.60;99.90
8563;DHT22;16392;52.508;13.468;2023-10-19T13:14:17;7.60;99.90
8563;DHT22;16392;52.508;13.468;2023-10-19T13:16:44;7.50;99.90
8563;DHT22;16392;52.508;13.468;2023-10-19T13:19:10;7.50;99.90
8563;DHT22;16392;52.508;13.468;2023-10-19T13:21:41;7.50;99.90
8563;DHT22;16392;52.508;13.468;2023-10-19T13:24:08;7.50;99.90
8563;DHT22;16392;52.508;13.468;2023-10-19T13:26:35;7.50;99.90
8563;DHT22;16392;52.508;13.468;2023-10-19T13:29:04;7.50;99.90
8563;DHT22;16392;52.508;13.468;2023-10-19T13:31:30;7.50;99.90
8563;DHT22;16392;52.508;13.468;2023-10-19T13:33:57;7.50;99.90
8563;DHT22;16392;52.508;13.468;2023-10-19T13:36:25;7.40;99.90
8563;DHT22;16392;52.508;13.468;2023-10-19T13:38:53;7.40;99.90
8563;DHT22;16392;52.508;13.468;2023-10-19T13:41:20;7.40;99.90
8563;DHT22;16392;52.508;13.468;2023-10-19T13:43:47;7.40;99.90
8563;DHT22;16392;52.508;13.468;2023-10-19T13:46:14;7.40;99.90
8563;DHT22;16392;52.508;13.468;2023-10-19T13:48:41;7.40;99.90
8563;DHT22;16392;52.508;13.468;2023-10-19T13:51:08;7.40;99.90
8563;DHT22;16392;52.508;13.468;2023-10-19T13:53:39;7.40;99.90
8563;DHT22;16392;52.508;13.468;2023-10-19T13:56:08;7.50;99.90
8563;DHT22;16392;52.508;13.468;2023-10-19T13:58:36;7.50;99.90
8563;DHT22;16392;52.508;13.468;2023-10-19T14:01:06;7.40;99.90
8563;DHT22;16392;52.508;13.468;2023-10-19T14:03:34;7.50;99.90
8563;DHT22;16392;52.508;13.468;2023-10-19T14:06:03;7.50;99.90
8563;DHT22;16392;52.508;13.468;2023-10-19T14:08:29;7.50;99.90
8563;DHT22;16392;52.508;13.468;2023-10-19T14:11:01;7.50;99.90
8563;DHT22;16392;52.508;13.468;2023-10-19T14:13:29;7.50;99.90
8563;DHT22;16392;52.508;13.468;2023-10-19T14:15:56;7.50;99.90
8563;DHT22;16392;52.508;13.468;2023-10-19T14:18:23;7.50;99.90
8563;DHT22;16392;52.508;13.468;2023-10-19T14:20:49;7.50;99.90
8563;DHT22;16392;52.508;13.468;2023-10-19T14:23:16;7.50;99.90
8563;DHT22;16392;52.508;13.468;2023-10-19T14:25:43;7.50;99.90
8563;DHT22;16392;52.508;13.468;2023-10-19T14:28:10;7.50;99.90
8563;DHT22;16392;52.508;13.468;2023-10-19T14:30:38;7.50;99.90
8563;DHT22;16392;52.508;13.468;2023-10-19T14:33:05;7.40;99.90
8563;DHT22;16392;52.508;13.468;2023-10-19T14:35:37;7.50;99.90
8563;DHT22;16392;52.508;13.468;2023-10-19T14:38:07;7.50;99.90
8563;DHT22;16392;52.508;13.468;2023-10-19T14:40:35;7.50;99.90
8563;DHT22;16392;52.508;13.468;2023-10-19T14:43:01;7.50;99.90
8563;DHT22;16392;52.508;13.468;2023-10-19T14:45:29;7.50;99.90
8563;DHT22;16392;52.508;13.468;2023-10-19T14:47:58;7.40;99.90
8563;DHT22;16392;52.508;13.468;2023-10-19T14:50:25;7.50;99.90
8563;DHT22;16392;52.508;13.468;2023-10-19T14:52:53;7.50;99.90
8563;DHT22;16392;52.508;13.468;2023-10-19T14:55:20;7.50;99.90
8563;DHT22;16392;52.508;13.468;2023-10-19T14:57:51;7.50;99.90
8563;DHT22;16392;52.508;13.468;2023-10-19T15:00:19;7.50;99.90
8563;DHT22;16392;52.508;13.468;2023-10-19T15:03:01;7.50;99.90
8563;DHT22;16392;52.508;13.468;2023-10-19T15:05:32;7.50;99.90
8563;DHT22;16392;52.508;13.468;2023-10-19T15:08:01;7.50;99.90
8563;DHT22;16392;52.508;13.468;2023-10-19T15:10:30;7.50;99.90
8563;DHT22;16392;52.508;13.468;2023-10-19T15:12:57;7.50;99.90
8563;DHT22;16392;52.508;13.468;2023-10-19T15:15:24;7.40;99.90
8563;DHT22;16392;52.508;13.468;2023-10-19T15:17:52;7.40;99.90
8563;DHT22;16392;52.508;13.468;2023-10-19T15:20:25;7.50;99.90
8563;DHT22;16392;52.508;13.468;2023-10-19T15:22:52;7.40;99.90
8563;DHT22;16392;52.508;13.468;2023-10-19T15:25:19;7.50;99.90
8563;DHT22;16392;52.508;13.468;2023-10-19T15:27:47;7.50;99.90
8563;DHT22;16392;52.508;13.468;2023-10-19T15:30:14;7.50;99.90
8563;DHT22;16392;52.508;13.468;2023-10-19T15:32:43;7.50;99.90
8563;DHT22;16392;52.508;13.468;2023-10-19T15:35:12;7.40;99.90
8563;DHT22;16392;52.508;13.468;2023-10-19T15:37:41;7.50;99.90
8563;DHT22;16392;52.508;13.468;2023-10-19T15:40:10;7.50;99.90
8563;DHT22;16392;52.508;13.468;2023-10-19T15:42:38;7.50;99.90
8563;DHT22;16392;52.508;13.468;2023-10-19T15:45:08;7.50;99.90
8563;DHT22;16392;52.508;13.468;2023-10-19T15:47:35;7.40;99.90
8563;DHT22;16392;52.508;13.468;2023-10-19T15:50:01;7.50;99.90
8563;DHT22;16392;52.508;13.468;2023-10-19T15:52:28;7.50;99.90
8563;DHT22;16392;52.508;13.468;2023-10-19T15:54:58;7.50;99.90
8563;DHT22;16392;52.508;13.468;2023-10-19T15:57:25;7.50;99.90